sensor_id;sensor_type;location;lat;lon;timestamp;temperature;humidity
45969;DHT22;31676;40.444;-3.668;2022-07-29T00:02:11;29.50;67.60
45969;DHT22;31676;40.444;-3.668;2022-07-29T00:04:37;29.50;67.50
45969;DHT22;31676;40.444;-3.668;2022-07-29T00:07:03;29.50;67.50
45969;DHT22;31676;40.444;-3.668;2022-07-29T00:09:30;29.50;67.60
45969;DHT22;31676;40.444;-3.668;2022-07-29T00:11:56;29.50;67.60
45969;DHT22;31676;40.444;-3.668;2022-07-29T00:14:23;29.50;67.60
45969;DHT22;31676;40.444;-3.668;2022-07-29T00:16:49;29.50;67.50
45969;DHT22;31676;40.444;-3.668;2022-07-29T00:19:14;29.50;67.60
45969;DHT22;31676;40.444;-3.668;2022-07-29T00:21:40;29.50;67.60
45969;DHT22;31676;40.444;-3.668;2022-07-29T00:24:06;29.40;67.50
45969;DHT22;31676;40.444;-3.668;2022-07-29T00:26:31;29.50;67.60
45969;DHT22;31676;40.444;-3.668;2022-07-29T00:28:58;29.40;67.50
45969;DHT22;31676;40.444;-3.668;2022-07-29T00:31:24;29.50;67.70
45969;DHT22;31676;40.444;-3.668;2022-07-29T00:33:50;29.50;67.60
45969;DHT22;31676;40.444;-3.668;2022-07-29T00:36:15;29.50;67.60
45969;DHT22;31676;40.444;-3.668;2022-07-29T00:38:41;29.40;67.60
45969;DHT22;31676;40.444;-3.668;2022-07-29T00:41:13;29.50;67.60
45969;DHT22;31676;40.444;-3.668;2022-07-29T00:43:38;29.50;67.70
45969;DHT22;31676;40.444;-3.668;2022-07-29T00:46:04;29.50;67.60
45969;DHT22;31676;40.444;-3.668;2022-07-29T00:48:30;29.50;67.60
45969;DHT22;31676;40.444;-3.668;2022-07-29T00:50:57;29.40;67.60
45969;DHT22;31676;40.444;-3.668;2022-07-29T00:53:23;29.50;67.70
45969;DHT22;31676;40.444;-3.668;2022-07-29T00:55:50;29.50;67.70
45969;DHT22;31676;40.444;-3.668;2022-07-29T00:58:15;29.40;67.60
45969;DHT22;31676;40.444;-3.668;2022-07-29T01:00:41;29.40;67.60
45969;DHT22;31676;40.444;-3.668;2022-07-29T01:03:07;29.40;67.60
45969;DHT22;31676;40.444;-3.668;2022-07-29T01:05:33;29.50;67.70
45969;DHT22;31676;40.444;-3.668;2022-07-29T01:07:59;29.40;67.60
45969;DHT22;31676;40.444;-3.668;2022-07-29T01:10:25;29.40;67.60
45969;DHT22;31676;40.444;-3.668;2022-07-29T01:12:52;29.40;67.60
45969;DHT22;31676;40.444;-3.668;2022-07-29T01:15:18;29.40;67.60
45969;DHT22;31676;40.444;-3.668;2022-07-29T01:17:45;29.40;67.60
45969;DHT22;31676;40.444;-3.668;2022-07-29T01:28:19;29.40;67.60
45969;DHT22;31676;40.444;-3.668;2022-07-29T01:30:49;29.40;67.60
45969;DHT22;31676;40.444;-3.668;2022-07-29T01:33:17;29.40;67.60
45969;DHT22;31676;40.444;-3.668;2022-07-29T01:36:03;29.40;67.70
45969;DHT22;31676;40.444;-3.668;2022-07-29T01:38:31;29.40;67.60
45969;DHT22;31676;40.444;-3.668;2022-07-29T01:41:04;29.40;67.60
45969;DHT22;31676;40.444;-3.668;2022-07-29T01:43:42;29.40;67.70
45969;DHT22;31676;40.444;-3.668;2022-07-29T01:46:11;29.40;67.70
45969;DHT22;31676;40.444;-3.668;2022-07-29T01:51:05;29.40;67.70
45969;DHT22;31676;40.444;-3.668;2022-07-29T01:53:37;29.40;67.70
45969;DHT22;31676;40.444;-3.668;2022-07-29T01:56:04;29.40;67.70
45969;DHT22;31676;40.444;-3.668;2022-07-29T01:58:32;29.40;67.70
45969;DHT22;31676;40.444;-3.668;2022-07-29T02:00:58;29.40;67.70
45969;DHT22;31676;40.444;-3.668;2022-07-29T02:03:25;29.40;67.70
45969;DHT22;31676;40.444;-3.668;2022-07-29T02:05:51;29.40;67.70
45969;DHT22;31676;40.444;-3.668;2022-07-29T02:08:18;29.40;67.70
45969;DHT22;31676;40.444;-3.668;2022-07-29T02:10:45;29.30;67.70
45969;DHT22;31676;40.444;-3.668;2022-07-29T02:13:12;29.40;67.70
45969;DHT22;31676;40.444;-3.668;2022-07-29T02:15:38;29.40;67.70
45969;DHT22;31676;40.444;-3.668;2022-07-29T02:18:15;29.30;67.70
45969;DHT22;31676;40.444;-3.668;2022-07-29T02:20:43;29.40;67.70
45969;DHT22;31676;40.444;-3.668;2022-07-29T02:23:11;29.40;67.70
45969;DHT22;31676;40.444;-3.668;2022-07-29T02:25:38;29.30;67.70
45969;DHT22;31676;40.444;-3.668;2022-07-29T02:28:05;29.40;67.70
45969;DHT22;31676;40.444;-3.668;2022-07-29T02:30:31;29.40;67.80
45969;DHT22;31676;40.444;-3.668;2022-07-29T02:32:58;29.40;67.70
45969;DHT22;31676;40.444;-3.668;2022-07-29T02:35:24;29.40;67.70
45969;DHT22;31676;40.444;-3.668;2022-07-29T02:37:50;29.40;67.70
45969;DHT22;31676;40.444;-3.668;2022-07-29T02:40:36;29.30;67.70
45969;DHT22;31676;40.444;-3.668;2022-07-29T02:43:03;29.30;67.70
45969;DHT22;31676;40.444;-3.668;2022-07-29T02:45:31;29.30;67.70
45969;DHT22;31676;40.444;-3.668;2022-07-29T02:47:57;29.40;67.80
45969;DHT22;31676;40.444;-3.668;2022-07-29T02:50:29;29.30;67.70
45969;DHT22;31676;40.444;-3.668;2022-07-29T02:53:00;29.30;67.70
45969;DHT22;31676;40.444;-3.668;2022-07-29T02:55:30;29.30;67.70
45969;DHT22;31676;40.444;-3.668;2022-07-29T02:58:05;29.30;67.70
45969;DHT22;31676;40.444;-3.668;2022-07-29T03:00:37;29.30;67.70
45969;DHT22;31676;40.444;-3.668;2022-07-29T03:03:07;29.30;67.70
45969;DHT22;31676;40.444;-3.668;2022-07-29T03:05:34;29.30;67.70
45969;DHT22;31676;40.444;-3.668;2022-07-29T03:08:01;29.30;67.70
45969;DHT22;31676;40.444;-3.668;2022-07-29T03:10:28;29.30;67.70
45969;DHT22;31676;40.444;-3.668;2022-07-29T03:12:54;29.30;67.70
45969;DHT22;31676;40.444;-3.668;2022-07-29T03:15:20;29.30;67.70
45969;DHT22;31676;40.444;-3.668;2022-07-29T03:17:47;29.30;67.70
45969;DHT22;31676;40.444;-3.668;2022-07-29T03:20:12;29.30;67.70
45969;DHT22;31676;40.444;-3.668;2022-07-29T03:22:39;29.30;67.70
45969;DHT22;31676;40.444;-3.668;2022-07-29T03:25:11;29.30;67.70
45969;DHT22;31676;40.444;-3.668;2022-07-29T03:27:37;29.30;67.70
45969;DHT22;31676;40.444;-3.668;2022-07-29T03:30:04;29.30;67.70
45969;DHT22;31676;40.444;-3.668;2022-07-29T03:32:29;29.30;67.70
45969;DHT22;31676;40.444;-3.668;2022-07-29T03:34:55;29.30;67.70
45969;DHT22;31676;40.444;-3.668;2022-07-29T03:37:21;29.30;67.70
45969;DHT22;31676;40.444;-3.668;2022-07-29T03:39:46;29.30;67.70
45969;DHT22;31676;40.444;-3.668;2022-07-29T03:42:13;29.30;67.70
45969;DHT22;31676;40.444;-3.668;2022-07-29T03:44:41;29.30;67.70
45969;DHT22;31676;40.444;-3.668;2022-07-29T03:47:08;29.30;67.70
45969;DHT22;31676;40.444;-3.668;2022-07-29T03:49:34;29.30;67.70
45969;DHT22;31676;40.444;-3.668;2022-07-29T03:52:02;29.20;67.70
45969;DHT22;31676;40.444;-3.668;2022-07-29T03:54:27;29.30;67.70
45969;DHT22;31676;40.444;-3.668;2022-07-29T03:56:53;29.20;67.60
45969;DHT22;31676;40.444;-3.668;2022-07-29T03:59:19;29.30;67.80
45969;DHT22;31676;40.444;-3.668;2022-07-29T04:01:45;29.20;67.70
45969;DHT22;31676;40.444;-3.668;2022-07-29T04:04:11;29.30;67.70
45969;DHT22;31676;40.444;-3.668;2022-07-29T04:06:40;29.30;67.70
45969;DHT22;31676;40.444;-3.668;2022-07-29T04:09:06;29.20;67.70
45969;DHT22;31676;40.444;-3.668;2022-07-29T04:11:32;29.20;67.70
45969;DHT22;31676;40.444;-3.668;2022-07-29T04:13:58;29.20;67.70
45969;DHT22;31676;40.444;-3.668;2022-07-29T04:16:24;29.30;67.70
45969;DHT22;31676;40.444;-3.668;2022-07-29T04:18:49;29.20;67.70
45969;DHT22;31676;40.444;-3.668;2022-07-29T04:21:15;29.20;67.70
45969;DHT22;31676;40.444;-3.668;2022-07-29T04:23:41;29.30;67.80
45969;DHT22;31676;40.444;-3.668;2022-07-29T04:26:06;29.20;67.70
45969;DHT22;31676;40.444;-3.668;2022-07-29T04:28:35;29.20;67.70
45969;DHT22;31676;40.444;-3.668;2022-07-29T04:31:00;29.20;67.70
45969;DHT22;31676;40.444;-3.668;2022-07-29T04:33:27;29.20;67.70
45969;DHT22;31676;40.444;-3.668;2022-07-29T04:35:52;29.20;67.70
45969;DHT22;31676;40.444;-3.668;2022-07-29T04:38:18;29.20;67.70
45969;DHT22;31676;40.444;-3.668;2022-07-29T04:40:44;29.20;67.70
45969;DHT22;31676;40.444;-3.668;2022-07-29T04:43:09;29.20;67.70
45969;DHT22;31676;40.444;-3.668;2022-07-29T04:45:35;29.20;67.70
45969;DHT22;31676;40.444;-3.668;2022-07-29T04:48:01;29.20;67.70
45969;DHT22;31676;40.444;-3.668;2022-07-29T04:50:26;29.20;67.70
45969;DHT22;31676;40.444;-3.668;2022-07-29T04:52:52;29.20;67.70
45969;DHT22;31676;40.444;-3.668;2022-07-29T04:55:18;29.20;67.70
45969;DHT22;31676;40.444;-3.668;2022-07-29T04:57:43;29.20;67.70
45969;DHT22;31676;40.444;-3.668;2022-07-29T05:00:09;29.20;67.70
45969;DHT22;31676;40.444;-3.668;2022-07-29T05:02:35;29.20;67.80
45969;DHT22;31676;40.444;-3.668;2022-07-29T05:05:00;29.10;67.70
45969;DHT22;31676;40.444;-3.668;2022-07-29T05:07:26;29.20;67.70
45969;DHT22;31676;40.444;-3.668;2022-07-29T05:09:52;29.20;67.70
45969;DHT22;31676;40.444;-3.668;2022-07-29T05:12:18;29.20;67.70
45969;DHT22;31676;40.444;-3.668;2022-07-29T05:14:43;29.20;67.80
45969;DHT22;31676;40.444;-3.668;2022-07-29T05:17:09;29.20;67.70
45969;DHT22;31676;40.444;-3.668;2022-07-29T05:19:35;29.10;67.70
45969;DHT22;31676;40.444;-3.668;2022-07-29T05:22:01;29.10;67.70
45969;DHT22;31676;40.444;-3.668;2022-07-29T05:24:26;29.20;67.80
45969;DHT22;31676;40.444;-3.668;2022-07-29T05:26:52;29.20;68.50
45969;DHT22;31676;40.444;-3.668;2022-07-29T05:29:18;29.10;67.70
45969;DHT22;31676;40.444;-3.668;2022-07-29T05:31:44;29.10;67.70
45969;DHT22;31676;40.444;-3.668;2022-07-29T05:34:09;29.10;67.70
45969;DHT22;31676;40.444;-3.668;2022-07-29T05:36:35;29.10;67.70
45969;DHT22;31676;40.444;-3.668;2022-07-29T05:39:01;29.10;67.70
45969;DHT22;31676;40.444;-3.668;2022-07-29T05:41:26;29.10;67.70
45969;DHT22;31676;40.444;-3.668;2022-07-29T05:43:52;29.20;67.80
45969;DHT22;31676;40.444;-3.668;2022-07-29T05:46:17;29.10;67.80
45969;DHT22;31676;40.444;-3.668;2022-07-29T05:48:43;29.10;67.70
45969;DHT22;31676;40.444;-3.668;2022-07-29T05:51:09;29.10;67.70
45969;DHT22;31676;40.444;-3.668;2022-07-29T05:53:35;29.10;67.70
45969;DHT22;31676;40.444;-3.668;2022-07-29T05:56:04;29.10;67.70
45969;DHT22;31676;40.444;-3.668;2022-07-29T05:58:30;29.10;67.80
45969;DHT22;31676;40.444;-3.668;2022-07-29T06:00:56;29.10;67.80
45969;DHT22;31676;40.444;-3.668;2022-07-29T06:03:27;29.10;67.70
45969;DHT22;31676;40.444;-3.668;2022-07-29T06:05:53;29.10;67.80
45969;DHT22;31676;40.444;-3.668;2022-07-29T06:08:18;29.10;67.80
45969;DHT22;31676;40.444;-3.668;2022-07-29T06:10:44;29.10;67.80
45969;DHT22;31676;40.444;-3.668;2022-07-29T06:13:11;29.10;67.80
45969;DHT22;31676;40.444;-3.668;2022-07-29T06:15:36;29.10;67.80
45969;DHT22;31676;40.444;-3.668;2022-07-29T06:18:02;29.10;67.80
45969;DHT22;31676;40.444;-3.668;2022-07-29T06:20:28;29.10;67.80
45969;DHT22;31676;40.444;-3.668;2022-07-29T06:22:55;29.10;67.80
45969;DHT22;31676;40.444;-3.668;2022-07-29T06:25:21;29.10;67.80
45969;DHT22;31676;40.444;-3.668;2022-07-29T06:27:46;29.10;67.80
45969;DHT22;31676;40.444;-3.668;2022-07-29T06:30:12;29.10;67.80
45969;DHT22;31676;40.444;-3.668;2022-07-29T06:32:38;29.10;67.80
45969;DHT22;31676;40.444;-3.668;2022-07-29T06:35:04;29.10;67.80
45969;DHT22;31676;40.444;-3.668;2022-07-29T06:37:29;29.00;67.70
45969;DHT22;31676;40.444;-3.668;2022-07-29T06:39:55;29.10;67.80
45969;DHT22;31676;40.444;-3.668;2022-07-29T06:42:42;29.00;67.80
45969;DHT22;31676;40.444;-3.668;2022-07-29T06:45:08;29.00;67.90
45969;DHT22;31676;40.444;-3.668;2022-07-29T06:47:34;29.00;67.80
45969;DHT22;31676;40.444;-3.668;2022-07-29T06:50:00;29.00;67.80
45969;DHT22;31676;40.444;-3.668;2022-07-29T06:52:26;29.00;67.80
45969;DHT22;31676;40.444;-3.668;2022-07-29T06:54:51;29.00;67.90
45969;DHT22;31676;40.444;-3.668;2022-07-29T06:57:17;29.00;67.80
45969;DHT22;31676;40.444;-3.668;2022-07-29T06:59:43;29.00;67.80
45969;DHT22;31676;40.444;-3.668;2022-07-29T07:02:08;29.00;67.90
45969;DHT22;31676;40.444;-3.668;2022-07-29T07:04:34;28.90;67.80
45969;DHT22;31676;40.444;-3.668;2022-07-29T07:06:59;28.90;67.80
45969;DHT22;31676;40.444;-3.668;2022-07-29T07:09:25;28.90;67.80
45969;DHT22;31676;40.444;-3.668;2022-07-29T07:11:51;28.90;67.80
45969;DHT22;31676;40.444;-3.668;2022-07-29T07:14:16;28.90;67.80
45969;DHT22;31676;40.444;-3.668;2022-07-29T07:16:42;28.90;67.80
45969;DHT22;31676;40.444;-3.668;2022-07-29T07:19:08;28.90;67.80
45969;DHT22;31676;40.444;-3.668;2022-07-29T07:21:33;28.90;67.80
45969;DHT22;31676;40.444;-3.668;2022-07-29T07:23:59;28.90;67.80
45969;DHT22;31676;40.444;-3.668;2022-07-29T07:26:25;28.90;67.90
45969;DHT22;31676;40.444;-3.668;2022-07-29T07:28:51;28.90;67.90
45969;DHT22;31676;40.444;-3.668;2022-07-29T07:31:16;28.90;67.90
45969;DHT22;31676;40.444;-3.668;2022-07-29T07:33:42;28.80;67.80
45969;DHT22;31676;40.444;-3.668;2022-07-29T07:36:08;28.90;67.90
45969;DHT22;31676;40.444;-3.668;2022-07-29T07:38:34;28.80;67.80
45969;DHT22;31676;40.444;-3.668;2022-07-29T07:41:00;28.80;67.80
45969;DHT22;31676;40.444;-3.668;2022-07-29T07:43:25;28.80;67.90
45969;DHT22;31676;40.444;-3.668;2022-07-29T07:45:51;28.80;67.80
45969;DHT22;31676;40.444;-3.668;2022-07-29T07:48:17;28.80;67.90
45969;DHT22;31676;40.444;-3.668;2022-07-29T07:50:42;28.80;67.90
45969;DHT22;31676;40.444;-3.668;2022-07-29T07:53:09;28.80;67.90
45969;DHT22;31676;40.444;-3.668;2022-07-29T07:55:39;28.70;67.80
45969;DHT22;31676;40.444;-3.668;2022-07-29T07:58:05;28.80;67.90
45969;DHT22;31676;40.444;-3.668;2022-07-29T08:00:30;28.80;67.90
45969;DHT22;31676;40.444;-3.668;2022-07-29T08:02:57;28.80;67.90
45969;DHT22;31676;40.444;-3.668;2022-07-29T08:05:23;28.70;67.80
45969;DHT22;31676;40.444;-3.668;2022-07-29T08:07:48;28.70;67.80
45969;DHT22;31676;40.444;-3.668;2022-07-29T08:10:15;28.70;68.50
45969;DHT22;31676;40.444;-3.668;2022-07-29T08:13:01;28.70;67.90
45969;DHT22;31676;40.444;-3.668;2022-07-29T08:15:27;28.70;67.90
45969;DHT22;31676;40.444;-3.668;2022-07-29T08:17:53;28.70;67.90
45969;DHT22;31676;40.444;-3.668;2022-07-29T08:20:18;28.70;67.90
45969;DHT22;31676;40.444;-3.668;2022-07-29T08:22:44;28.70;67.90
45969;DHT22;31676;40.444;-3.668;2022-07-29T08:25:10;28.70;67.90
45969;DHT22;31676;40.444;-3.668;2022-07-29T08:27:35;28.70;68.00
45969;DHT22;31676;40.444;-3.668;2022-07-29T08:30:01;28.70;67.90
45969;DHT22;31676;40.444;-3.668;2022-07-29T08:32:27;28.70;67.90
45969;DHT22;31676;40.444;-3.668;2022-07-29T08:34:53;28.70;67.90
45969;DHT22;31676;40.444;-3.668;2022-07-29T08:37:19;28.70;67.90
45969;DHT22;31676;40.444;-3.668;2022-07-29T08:39:45;28.70;67.90
45969;DHT22;31676;40.444;-3.668;2022-07-29T08:42:11;28.70;67.90
45969;DHT22;31676;40.444;-3.668;2022-07-29T08:44:36;28.70;68.00
45969;DHT22;31676;40.444;-3.668;2022-07-29T08:47:02;28.60;67.90
45969;DHT22;31676;40.444;-3.668;2022-07-29T08:49:28;28.70;68.00
45969;DHT22;31676;40.444;-3.668;2022-07-29T08:51:54;28.70;68.00
45969;DHT22;31676;40.444;-3.668;2022-07-29T08:54:21;28.70;68.00
45969;DHT22;31676;40.444;-3.668;2022-07-29T08:56:48;28.70;68.00
45969;DHT22;31676;40.444;-3.668;2022-07-29T08:59:15;28.60;67.90
45969;DHT22;31676;40.444;-3.668;2022-07-29T09:01:41;28.60;68.00
45969;DHT22;31676;40.444;-3.668;2022-07-29T09:04:10;28.60;68.00
45969;DHT22;31676;40.444;-3.668;2022-07-29T09:06:36;28.60;68.00
45969;DHT22;31676;40.444;-3.668;2022-07-29T09:09:02;28.70;68.10
45969;DHT22;31676;40.444;-3.668;2022-07-29T09:11:29;28.60;68.00
45969;DHT22;31676;40.444;-3.668;2022-07-29T09:13:55;28.60;68.00
45969;DHT22;31676;40.444;-3.668;2022-07-29T09:16:20;28.60;68.00
45969;DHT22;31676;40.444;-3.668;2022-07-29T09:18:46;28.60;68.00
45969;DHT22;31676;40.444;-3.668;2022-07-29T09:21:13;28.60;68.00
45969;DHT22;31676;40.444;-3.668;2022-07-29T09:24:01;28.60;68.10
45969;DHT22;31676;40.444;-3.668;2022-07-29T09:26:28;28.60;68.10
45969;DHT22;31676;40.444;-3.668;2022-07-29T09:28:54;28.60;68.10
45969;DHT22;31676;40.444;-3.668;2022-07-29T09:31:24;28.60;68.10
45969;DHT22;31676;40.444;-3.668;2022-07-29T09:33:51;28.60;68.10
45969;DHT22;31676;40.444;-3.668;2022-07-29T09:36:17;28.60;68.10
45969;DHT22;31676;40.444;-3.668;2022-07-29T09:38:43;28.60;68.10
45969;DHT22;31676;40.444;-3.668;2022-07-29T09:41:21;28.60;68.10
45969;DHT22;31676;40.444;-3.668;2022-07-29T09:43:54;28.50;68.00
45969;DHT22;31676;40.444;-3.668;2022-07-29T09:46:20;28.50;68.20
45969;DHT22;31676;40.444;-3.668;2022-07-29T09:48:52;28.50;68.10
45969;DHT22;31676;40.444;-3.668;2022-07-29T09:51:30;28.50;68.10
45969;DHT22;31676;40.444;-3.668;2022-07-29T09:53:56;28.50;68.10
45969;DHT22;31676;40.444;-3.668;2022-07-29T09:56:40;28.50;68.10
45969;DHT22;31676;40.444;-3.668;2022-07-29T09:59:07;28.50;68.20
45969;DHT22;31676;40.444;-3.668;2022-07-29T10:01:33;28.50;68.20
45969;DHT22;31676;40.444;-3.668;2022-07-29T10:03:59;28.50;68.10
45969;DHT22;31676;40.444;-3.668;2022-07-29T10:06:25;28.50;68.20
45969;DHT22;31676;40.444;-3.668;2022-07-29T10:08:51;28.50;68.20
45969;DHT22;31676;40.444;-3.668;2022-07-29T10:11:18;28.50;68.20
45969;DHT22;31676;40.444;-3.668;2022-07-29T10:13:45;28.50;68.20
45969;DHT22;31676;40.444;-3.668;2022-07-29T10:16:11;28.50;68.20
45969;DHT22;31676;40.444;-3.668;2022-07-29T10:18:38;28.50;68.20
45969;DHT22;31676;40.444;-3.668;2022-07-29T10:21:04;28.50;68.20
45969;DHT22;31676;40.444;-3.668;2022-07-29T10:23:30;28.50;68.20
45969;DHT22;31676;40.444;-3.668;2022-07-29T10:25:56;28.50;68.20
45969;DHT22;31676;40.444;-3.668;2022-07-29T10:28:22;28.50;68.20
45969;DHT22;31676;40.444;-3.668;2022-07-29T10:30:48;28.50;68.20
45969;DHT22;31676;40.444;-3.668;2022-07-29T10:33:18;28.50;68.90
45969;DHT22;31676;40.444;-3.668;2022-07-29T10:38:27;28.50;68.20
45969;DHT22;31676;40.444;-3.668;2022-07-29T10:41:06;28.50;68.20
45969;DHT22;31676;40.444;-3.668;2022-07-29T10:43:51;28.50;68.20
45969;DHT22;31676;40.444;-3.668;2022-07-29T10:46:18;28.50;68.20
45969;DHT22;31676;40.444;-3.668;2022-07-29T10:54:13;28.50;68.20
45969;DHT22;31676;40.444;-3.668;2022-07-29T10:56:39;28.50;68.10
45969;DHT22;31676;40.444;-3.668;2022-07-29T11:01:43;28.50;68.10
45969;DHT22;31676;40.444;-3.668;2022-07-29T11:04:09;28.50;68.10
45969;DHT22;31676;40.444;-3.668;2022-07-29T11:09:19;28.60;68.20
45969;DHT22;31676;40.444;-3.668;2022-07-29T11:11:45;28.60;68.10
45969;DHT22;31676;40.444;-3.668;2022-07-29T11:14:11;28.60;68.10
45969;DHT22;31676;40.444;-3.668;2022-07-29T11:19:21;28.60;68.10
45969;DHT22;31676;40.444;-3.668;2022-07-29T11:21:46;28.50;68.10
45969;DHT22;31676;40.444;-3.668;2022-07-29T11:24:13;28.60;68.10
45969;DHT22;31676;40.444;-3.668;2022-07-29T11:26:39;28.60;68.10
45969;DHT22;31676;40.444;-3.668;2022-07-29T11:29:16;28.50;68.10
45969;DHT22;31676;40.444;-3.668;2022-07-29T11:34:22;28.60;68.20
45969;DHT22;31676;40.444;-3.668;2022-07-29T11:39:48;28.60;68.10
45969;DHT22;31676;40.444;-3.668;2022-07-29T11:47:36;28.60;68.20
45969;DHT22;31676;40.444;-3.668;2022-07-29T11:50:02;28.60;68.10
45969;DHT22;31676;40.444;-3.668;2022-07-29T11:52:32;28.50;68.00
45969;DHT22;31676;40.444;-3.668;2022-07-29T11:54:58;28.50;68.10
45969;DHT22;31676;40.444;-3.668;2022-07-29T11:57:26;28.60;68.10
45969;DHT22;31676;40.444;-3.668;2022-07-29T11:59:53;28.60;68.10
45969;DHT22;31676;40.444;-3.668;2022-07-29T12:02:20;28.60;68.10
45969;DHT22;31676;40.444;-3.668;2022-07-29T12:04:49;28.60;68.10
45969;DHT22;31676;40.444;-3.668;2022-07-29T12:07:15;28.60;68.10
45969;DHT22;31676;40.444;-3.668;2022-07-29T12:09:48;28.60;68.10
45969;DHT22;31676;40.444;-3.668;2022-07-29T12:12:15;28.60;68.10
45969;DHT22;31676;40.444;-3.668;2022-07-29T12:14:41;28.60;68.10
45969;DHT22;31676;40.444;-3.668;2022-07-29T12:17:24;28.60;68.10
45969;DHT22;31676;40.444;-3.668;2022-07-29T12:19:51;28.60;68.10
45969;DHT22;31676;40.444;-3.668;2022-07-29T12:22:24;28.60;68.00
45969;DHT22;31676;40.444;-3.668;2022-07-29T12:24:50;28.60;68.10
45969;DHT22;31676;40.444;-3.668;2022-07-29T12:27:16;28.60;68.10
45969;DHT22;31676;40.444;-3.668;2022-07-29T12:29:42;28.60;68.10
45969;DHT22;31676;40.444;-3.668;2022-07-29T12:32:08;28.60;68.10
45969;DHT22;31676;40.444;-3.668;2022-07-29T12:34:34;28.60;68.10
45969;DHT22;31676;40.444;-3.668;2022-07-29T12:37:00;28.60;68.10
45969;DHT22;31676;40.444;-3.668;2022-07-29T12:39:26;28.60;68.10
45969;DHT22;31676;40.444;-3.668;2022-07-29T12:41:53;28.60;68.10
45969;DHT22;31676;40.444;-3.668;2022-07-29T12:44:19;28.60;68.10
45969;DHT22;31676;40.444;-3.668;2022-07-29T12:46:44;28.60;68.10
45969;DHT22;31676;40.444;-3.668;2022-07-29T12:49:22;28.60;68.10
45969;DHT22;31676;40.444;-3.668;2022-07-29T12:51:48;28.60;68.10
45969;DHT22;31676;40.444;-3.668;2022-07-29T12:54:14;28.60;68.10
45969;DHT22;31676;40.444;-3.668;2022-07-29T12:56:41;28.60;68.10
45969;DHT22;31676;40.444;-3.668;2022-07-29T12:59:20;28.60;68.10
45969;DHT22;31676;40.444;-3.668;2022-07-29T13:01:50;28.60;68.10
45969;DHT22;31676;40.444;-3.668;2022-07-29T13:04:26;28.60;68.10
45969;DHT22;31676;40.444;-3.668;2022-07-29T13:06:58;28.60;68.10
45969;DHT22;31676;40.444;-3.668;2022-07-29T13:09:35;28.60;68.10
45969;DHT22;31676;40.444;-3.668;2022-07-29T13:12:01;28.70;68.10
45969;DHT22;31676;40.444;-3.668;2022-07-29T13:14:31;28.70;68.10
45969;DHT22;31676;40.444;-3.668;2022-07-29T13:17:07;28.70;68.10
45969;DHT22;31676;40.444;-3.668;2022-07-29T13:19:40;28.60;68.00
45969;DHT22;31676;40.444;-3.668;2022-07-29T13:22:07;28.70;68.10
45969;DHT22;31676;40.444;-3.668;2022-07-29T13:24:33;28.70;68.10
45969;DHT22;31676;40.444;-3.668;2022-07-29T13:26:58;28.70;68.00
45969;DHT22;31676;40.444;-3.668;2022-07-29T13:29:24;28.70;68.00
45969;DHT22;31676;40.444;-3.668;2022-07-29T13:31:51;28.70;68.00
45969;DHT22;31676;40.444;-3.668;2022-07-29T13:34:17;28.70;68.00
45969;DHT22;31676;40.444;-3.668;2022-07-29T13:36:44;28.70;68.00
45969;DHT22;31676;40.444;-3.668;2022-07-29T13:39:10;28.70;68.00
45969;DHT22;31676;40.444;-3.668;2022-07-29T13:41:36;28.70;68.00
45969;DHT22;31676;40.444;-3.668;2022-07-29T13:44:02;28.70;68.00
45969;DHT22;31676;40.444;-3.668;2022-07-29T13:46:28;28.70;68.00
45969;DHT22;31676;40.444;-3.668;2022-07-29T13:48:53;28.70;68.00
45969;DHT22;31676;40.444;-3.668;2022-07-29T13:51:19;28.70;68.00
45969;DHT22;31676;40.444;-3.668;2022-07-29T13:53:45;28.70;68.00
45969;DHT22;31676;40.444;-3.668;2022-07-29T13:56:10;28.70;68.00
45969;DHT22;31676;40.444;-3.668;2022-07-29T13:58:36;28.70;68.00
45969;DHT22;31676;40.444;-3.668;2022-07-29T14:01:02;28.70;68.00
45969;DHT22;31676;40.444;-3.668;2022-07-29T14:03:27;28.70;68.00
45969;DHT22;31676;40.444;-3.668;2022-07-29T14:05:53;28.80;68.10
45969;DHT22;31676;40.444;-3.668;2022-07-29T14:08:19;28.70;68.00
45969;DHT22;31676;40.444;-3.668;2022-07-29T14:10:45;28.70;68.00
45969;DHT22;31676;40.444;-3.668;2022-07-29T14:13:10;28.70;68.00
45969;DHT22;31676;40.444;-3.668;2022-07-29T14:15:36;28.80;68.00
45969;DHT22;31676;40.444;-3.668;2022-07-29T14:18:02;28.80;68.00
45969;DHT22;31676;40.444;-3.668;2022-07-29T14:20:27;28.70;68.00
45969;DHT22;31676;40.444;-3.668;2022-07-29T14:22:56;28.80;68.10
45969;DHT22;31676;40.444;-3.668;2022-07-29T14:25:22;28.70;68.00
45969;DHT22;31676;40.444;-3.668;2022-07-29T14:27:47;28.80;68.00
45969;DHT22;31676;40.444;-3.668;2022-07-29T14:30:13;28.80;68.00
45969;DHT22;31676;40.444;-3.668;2022-07-29T14:32:39;28.80;68.00
45969;DHT22;31676;40.444;-3.668;2022-07-29T14:35:05;28.80;68.00
45969;DHT22;31676;40.444;-3.668;2022-07-29T14:37:31;28.80;68.00
45969;DHT22;31676;40.444;-3.668;2022-07-29T14:39:57;28.80;68.00
45969;DHT22;31676;40.444;-3.668;2022-07-29T14:42:27;28.80;68.00
45969;DHT22;31676;40.444;-3.668;2022-07-29T14:44:52;28.80;68.00
45969;DHT22;31676;40.444;-3.668;2022-07-29T14:47:18;28.80;67.90
45969;DHT22;31676;40.444;-3.668;2022-07-29T14:49:44;28.80;67.90
45969;DHT22;31676;40.444;-3.668;2022-07-29T14:52:10;28.80;67.90
45969;DHT22;31676;40.444;-3.668;2022-07-29T14:54:36;28.80;67.90
45969;DHT22;31676;40.444;-3.668;2022-07-29T14:57:01;28.80;68.00
45969;DHT22;31676;40.444;-3.668;2022-07-29T14:59:27;28.80;67.90
45969;DHT22;31676;40.444;-3.668;2022-07-29T15:01:53;28.90;68.00
45969;DHT22;31676;40.444;-3.668;2022-07-29T15:04:18;28.80;67.90
45969;DHT22;31676;40.444;-3.668;2022-07-29T15:06:44;28.90;68.00
45969;DHT22;31676;40.444;-3.668;2022-07-29T15:09:10;28.80;67.90
45969;DHT22;31676;40.444;-3.668;2022-07-29T15:11:35;28.80;67.90
45969;DHT22;31676;40.444;-3.668;2022-07-29T15:14:01;28.90;68.00
45969;DHT22;31676;40.444;-3.668;2022-07-29T15:16:27;28.90;68.00
45969;DHT22;31676;40.444;-3.668;2022-07-29T15:18:52;28.90;68.00
45969;DHT22;31676;40.444;-3.668;2022-07-29T15:21:18;28.90;68.00
45969;DHT22;31676;40.444;-3.668;2022-07-29T15:23:44;28.80;67.90
45969;DHT22;31676;40.444;-3.668;2022-07-29T15:26:10;28.90;68.00
45969;DHT22;31676;40.444;-3.668;2022-07-29T15:28:35;28.90;68.00
45969;DHT22;31676;40.444;-3.668;2022-07-29T15:31:01;28.80;67.90
45969;DHT22;31676;40.444;-3.668;2022-07-29T15:33:27;28.90;68.00
45969;DHT22;31676;40.444;-3.668;2022-07-29T15:35:53;28.90;68.00
45969;DHT22;31676;40.444;-3.668;2022-07-29T15:38:18;28.90;68.00
45969;DHT22;31676;40.444;-3.668;2022-07-29T15:40:44;28.90;68.00
45969;DHT22;31676;40.444;-3.668;2022-07-29T15:43:11;28.90;68.00
45969;DHT22;31676;40.444;-3.668;2022-07-29T15:45:37;28.90;68.00
45969;DHT22;31676;40.444;-3.668;2022-07-29T15:48:04;28.90;68.00
45969;DHT22;31676;40.444;-3.668;2022-07-29T15:50:29;28.90;68.00
45969;DHT22;31676;40.444;-3.668;2022-07-29T15:52:55;28.90;68.00